Cottonwood Falls, KS

8:30 AM CDT on July 28, 2014 (GMT -0500)
Timmerman School Area (KKSEMPOR4) Elev 1214 ft | 38.43 °N, 96.22 °W | Change Station

Current weather conditions updated 1 minute ago

Clear
Clear
65.8 °F
Feels Like 65.8 °F
N
9.8
Wind Variable Wind from North
Gusts 12.3 mph

Today is forecast to be Cooler than yesterday.

Today
High -- | Low -- °F
--% Chance of Precip.
Yesterday
High -- | Low -- °F
Precip. -- in
6:24 AM 8:39 PM
New Moon, 2% visible
Pressure 30.21 in
Visibility 10.0 miles
Clouds Clear
Dew Point 59 °F
Humidity 79%
Rainfall 0.00 in
Snow Depth Not available.
UV 1 out of 12
Pollen 6.80 out of 12
Air Quality Not available.
Flu Activity Not available.
METAR KEMP 281253Z AUTO 02007KT 10SM CLR 19/14 A3023 RMK AO2 SLP228 T01890144

More Conditions Fewer Conditions

Pressure 30.21 in
Visibility 10.0 miles
Clouds Clear
Dew Point 59 °F
Humidity 79%
Rainfall 0.00 in
Snow Depth Not available.
UV 1 out of 12
Pollen 6.80 out of 12
Air Quality Not available.
Flu Activity Not available.
METAR KEMP 281253Z AUTO 02007KT 10SM CLR 19/14 A3023 RMK AO2 SLP228 T01890144

More Conditions Fewer Conditions

10-Day Weather Forecast

Almanac

Astronomy

Jul. 28, 2014 Rise Set
Actual Time 6:24 AM CDT 8:39 PM CDT
Civil Twilight 5:55 AM CDT 9:09 PM CDT
Nautical Twilight 5:18 AM CDT 9:45 PM CDT
Astronomical Twilight 4:38 AM CDT 10:25 PM CDT
Moon 8:05 AM CDT 9:24 PM CDT
Length of Visible Light 15h 14m
Length of Day
14h 14m
Tomorrow will be 1m 45s shorter.
New Moon, 2% of the Moon is Illuminated
Today
New Moon
Aug 3
First Quarter
Aug 10
Full
Aug 17
Last Quarter
Aug 25
New

Today's Extremes

State Highs State Lows

Community

WunderPhotos

Upload Photos

1,738,328 photos uploaded!

Nearby

Snow Depth

Station Depth Elevation
No new snow has been reported.

Earthquake Activity

City Distance Mag. Time & Date
Helena, Oklahoma 149 miles 2.6 12:50 PM CDT
2014-07-22
Minimum magnitude displayed is 2.5.

Coastal Water Temperatures

Place Temperature
No Stations Reporting

Nearby Weather Stations

Station Location Temp. Dew Point Humidity Wind Precip. Elev Updated Type
RAWS TALLGRASS PRAIRIE KS, Strong City, KS 64 °F 60 °F 88% SSE  at  5 mph 0.00 in / hr 1230 ft 7:30 AM CDT MADIS
Timmerman School Area, Emporia, KS 65.8 °F 59 °F 79% North  at  9.8 mph 0.00 in / hr 1214 ft 8:29 AM CDT Rapid Fire
East Emporia Kansas, Emporia, KS 69.6 °F 58 °F 67% North  at  5.3 mph - / hr 1106 ft 8:29 AM CDT Normal
Marion County Lake, Marion, KS 68.5 °F 57 °F 66% SE  at  1.6 mph 0.00 in / hr 1362 ft 8:30 AM CDT Rapid Fire

Show More Stations Show Fewer Stations